Time;durP1;ratioP1;P1;durP2;ratioP2;P2;SDS_P1;SDS_P2;PMS_P1;PMS_P2;Temp;Humidity;BMP_temperature;BMP_pressure;BME280_temperature;BME280_humidity;BME280_pressure;Samples;Min_cycle;Max_cycle;Signal;HPM_P1;HPM_P2
2021/12/21 00:00:12;;;;;;;83.18;38.83;;;;;;;-144.47;100.00;61586.06;5006965;28;20033;-88
2021/12/21 00:02:46;;;;;;;92.97;41.35;;;;;;;-144.47;100.00;61586.06;5028561;28;20021;-88
2021/12/21 00:05:19;;;;;;;90.82;41.38;;;;;;;-144.47;100.00;61586.06;5049388;28;20049;-87
2021/12/21 00:07:50;;;;;;;94.15;42.80;;;;;;;-144.47;100.00;61586.06;5028735;28;20050;-88
2021/12/21 00:10:18;;;;;;;90.38;40.13;;;;;;;-144.47;100.00;61586.06;5039169;28;20030;-88
2021/12/21 00:13:03;;;;;;;92.95;39.72;;;;;;;-144.47;100.00;61586.06;5021630;28;20014;-86
2021/12/21 00:15:57;;;;;;;93.55;40.30;;;;;;;-144.47;100.00;61586.06;5017194;28;20489;-86
2021/12/21 00:23:45;;;;;;;100.13;40.47;;;;;;;-144.47;100.00;61586.06;5006567;28;20048;-87
2021/12/21 00:26:19;;;;;;;97.20;40.90;;;;;;;-144.47;100.00;61586.06;5006690;28;20046;-88
2021/12/21 00:31:13;;;;;;;96.03;40.15;;;;;;;-144.47;100.00;61586.06;5010104;28;20481;-87
2021/12/21 00:33:41;;;;;;;99.82;42.13;;;;;;;-144.47;100.00;61586.06;5028561;28;20079;-88
2021/12/21 00:36:08;;;;;;;95.82;42.70;;;;;;;-144.47;100.00;61586.06;5007898;28;20033;-85
2021/12/21 00:38:34;;;;;;;92.75;41.45;;;;;;;-144.47;100.00;61586.06;4990344;28;20146;-87
2021/12/21 00:41:00;;;;;;;101.40;40.05;;;;;;;-144.47;100.00;61586.06;5008113;28;20034;-87
2021/12/21 00:43:26;;;;;;;101.20;41.80;;;;;;;-144.47;100.00;61586.06;5026484;28;20091;-89
2021/12/21 00:45:51;;;;;;;105.35;41.83;;;;;;;-144.47;100.00;61586.06;5024835;28;20036;-88
2021/12/21 00:48:17;;;;;;;103.82;41.88;;;;;;;-144.47;100.00;61586.06;5027415;28;20029;-88
2021/12/21 00:50:44;;;;;;;94.32;42.33;;;;;;;-144.47;100.00;61586.06;5005719;28;20475;-88
2021/12/21 00:53:09;;;;;;;103.43;40.42;;;;;;;-144.47;100.00;61586.06;4988526;28;20037;-88
2021/12/21 00:55:35;;;;;;;100.57;42.08;;;;;;;-144.47;100.00;61586.06;5007234;28;20048;-88
2021/12/21 00:58:00;;;;;;;95.78;41.72;;;;;;;-144.47;100.00;61586.06;5008921;28;20030;-89
2021/12/21 01:00:26;;;;;;;89.05;39.83;;;;;;;-144.47;100.00;61586.06;5004608;28;20061;-88
2021/12/21 01:02:52;;;;;;;97.65;42.55;;;;;;;-144.47;100.00;61586.06;4987476;28;20084;-88
2021/12/21 01:05:29;;;;;;;94.82;41.90;;;;;;;-144.47;100.00;61586.06;5035821;28;20025;-89
2021/12/21 01:07:58;;;;;;;97.65;40.17;;;;;;;-144.47;100.00;61586.06;4998918;28;20041;-88
2021/12/21 01:18:18;;;;;;;91.35;40.97;;;;;;;-144.47;100.00;61586.06;5003526;28;20136;-88
2021/12/21 01:21:09;;;;;;;97.40;41.65;;;;;;;-144.47;100.00;61586.06;5022035;28;20037;-89
2021/12/21 01:39:41;;;;;;;97.90;43.58;;;;;;;-144.47;100.00;61586.06;5041231;28;20034;-88
2021/12/21 01:42:12;;;;;;;95.80;41.70;;;;;;;-144.47;100.00;61586.06;5016999;28;20499;-87
2021/12/21 01:49:34;;;;;;;91.30;42.15;;;;;;;-144.47;100.00;61586.06;5049411;28;20089;-87
2021/12/21 01:50:08;;;;;;;95.68;42.08;;;;;;;-144.47;100.00;61586.06;5045479;28;20045;-88
2021/12/21 01:52:33;;;;;;;87.80;39.53;;;;;;;-144.47;100.00;61586.06;5011387;28;20041;-87
2021/12/21 01:54:59;;;;;;;90.97;39.85;;;;;;;-144.47;100.00;61586.06;5020017;28;20227;-87
2021/12/21 01:57:24;;;;;;;94.50;41.85;;;;;;;-144.47;100.00;61586.06;5010122;28;20030;-87
2021/12/21 01:59:50;;;;;;;90.90;41.55;;;;;;;-144.47;100.00;61586.06;5020167;28;20033;-87
2021/12/21 02:02:18;;;;;;;91.55;41.65;;;;;;;-144.47;100.00;61586.06;5047979;28;20014;-88
2021/12/21 02:04:44;;;;;;;95.95;41.50;;;;;;;-144.47;100.00;61586.06;5052255;28;20029;-88
2021/12/21 02:07:11;;;;;;;91.13;41.88;;;;;;;-144.47;100.00;61586.06;5032695;28;20040;-87
2021/12/21 02:09:37;;;;;;;88.55;40.55;;;;;;;-144.47;100.00;61586.06;5070458;28;20022;-87
2021/12/21 02:12:10;;;;;;;90.00;40.33;;;;;;;-144.47;100.00;61586.06;5039956;28;20043;-86
2021/12/21 02:14:37;;;;;;;78.03;37.30;;;;;;;-144.47;100.00;61586.06;5056867;28;20088;-87
2021/12/21 02:19:43;;;;;;;84.85;39.05;;;;;;;-144.47;100.00;61586.06;5061699;28;20045;-87
2021/12/21 02:22:13;;;;;;;;;;;;;;;-144.47;100.00;61586.06;5011742;28;20041;-87
2021/12/21 02:24:52;;;;;;;86.40;40.17;;;;;;;-144.47;100.00;61586.06;5007669;28;20000;-87
2021/12/21 02:27:26;;;;;;;85.32;39.40;;;;;;;-144.47;100.00;61586.06;5024119;28;20076;-88
2021/12/21 02:29:52;;;;;;;85.53;38.20;;;;;;;-144.47;100.00;61586.06;5005650;28;20044;-86
2021/12/21 02:32:20;;;;;;;89.65;41.58;;;;;;;-144.47;100.00;61586.06;5044411;28;20021;-87
2021/12/21 02:34:46;;;;;;;85.93;40.83;;;;;;;-144.47;100.00;61586.06;5034442;28;20032;-87
2021/12/21 02:37:12;;;;;;;82.90;40.20;;;;;;;-144.47;100.00;61586.06;5039651;28;20052;-85
2021/12/21 02:39:38;;;;;;;79.55;40.28;;;;;;;-144.47;100.00;61586.06;5025154;28;20489;-87
2021/12/21 02:42:05;;;;;;;89.53;42.22;;;;;;;-144.47;100.00;61586.06;5014690;28;20040;-88
2021/12/21 02:44:33;;;;;;;85.40;38.25;;;;;;;-144.47;100.00;61586.06;5007380;28;20064;-87
2021/12/21 02:46:59;;;;;;;80.90;38.60;;;;;;;-144.47;100.00;61586.06;5028414;28;20052;-87
2021/12/21 02:49:25;;;;;;;89.72;39.90;;;;;;;-144.47;100.00;61586.06;5007441;28;20436;-86
2021/12/21 02:51:51;;;;;;;81.00;40.00;;;;;;;-144.47;100.00;61586.06;5045571;28;20031;-89
2021/12/21 02:54:20;;;;;;;84.45;37.88;;;;;;;-144.47;100.00;61586.06;5042691;28;20045;-86
2021/12/21 02:56:47;;;;;;;85.25;41.28;;;;;;;-144.47;100.00;61586.06;5023964;28;20025;-88
2021/12/21 02:59:13;;;;;;;82.65;38.92;;;;;;;-144.47;100.00;61586.06;5007519;28;20101;-88
2021/12/21 03:01:39;;;;;;;84.60;40.15;;;;;;;-144.47;100.00;61586.06;5026426;28;20043;-88
2021/12/21 03:04:07;;;;;;;80.88;39.15;;;;;;;-144.47;100.00;61586.06;5041567;28;20029;-87
2021/12/21 03:09:37;;;;;;;84.30;40.08;;;;;;;-144.47;100.00;61586.06;5024945;28;20088;-88
2021/12/21 03:12:15;;;;;;;86.00;39.83;;;;;;;-144.47;100.00;61586.06;5044368;28;20041;-87
2021/12/21 03:14:42;;;;;;;76.43;38.22;;;;;;;-144.47;100.00;61586.06;5025126;28;20704;-87
2021/12/21 03:17:09;;;;;;;82.95;40.40;;;;;;;-144.47;100.00;61586.06;5045299;28;20088;-85
2021/12/21 03:19:35;;;;;;;79.40;37.88;;;;;;;-144.47;100.00;61586.06;5074832;28;20037;-87
2021/12/21 03:22:01;;;;;;;80.18;38.15;;;;;;;-144.47;100.00;61586.06;5041905;28;20392;-87
2021/12/21 03:24:26;;;;;;;81.10;38.55;;;;;;;-144.47;100.00;61586.06;5013950;28;20041;-88
2021/12/21 03:26:52;;;;;;;73.90;37.42;;;;;;;-144.47;100.00;61586.06;5023875;28;20033;-85
2021/12/21 03:29:18;;;;;;;78.00;40.33;;;;;;;-144.47;100.00;61586.06;5022578;28;20064;-87
2021/12/21 03:31:43;;;;;;;79.90;39.08;;;;;;;-144.47;100.00;61586.06;5014717;28;20413;-88
2021/12/21 03:34:09;;;;;;;79.00;38.35;;;;;;;-144.47;100.00;61586.06;5059410;28;20045;-88
2021/12/21 03:36:35;;;;;;;77.35;38.60;;;;;;;-144.47;100.00;61586.06;5043754;28;20839;-88
2021/12/21 03:39:09;;;;;;;77.72;38.08;;;;;;;-144.47;100.00;61586.06;5008654;28;20120;-88
2021/12/21 03:41:39;;;;;;;76.50;38.85;;;;;;;-144.47;100.00;61586.06;5008720;28;20029;-88
2021/12/21 03:44:07;;;;;;;79.15;38.88;;;;;;;-144.47;100.00;61586.06;5026391;28;20045;-88
2021/12/21 03:46:33;;;;;;;81.05;37.75;;;;;;;-144.47;100.00;61586.06;5021887;28;20125;-88
2021/12/21 03:49:18;;;;;;;78.85;38.15;;;;;;;-144.47;100.00;61586.06;5024780;28;20075;-88
2021/12/21 03:51:43;;;;;;;75.45;37.20;;;;;;;-144.47;100.00;61586.06;5015627;28;20044;-87
2021/12/21 03:54:09;;;;;;;75.82;38.28;;;;;;;-144.47;100.00;61586.06;5012716;28;20276;-88
2021/12/21 03:56:40;;;;;;;76.43;37.80;;;;;;;-144.47;100.00;61586.06;5043199;28;20232;-88
2021/12/21 03:59:06;;;;;;;76.97;39.28;;;;;;;-144.47;100.00;61586.06;5058261;28;20035;-88
2021/12/21 04:01:32;;;;;;;70.43;36.80;;;;;;;-144.47;100.00;61586.06;5023240;28;20038;-88
2021/12/21 04:03:57;;;;;;;70.93;36.92;;;;;;;-144.47;100.00;61586.06;5011783;28;20022;-87
2021/12/21 04:06:23;;;;;;;72.47;37.13;;;;;;;-144.47;100.00;61586.06;5007496;28;20044;-86
2021/12/21 04:08:48;;;;;;;73.68;37.35;;;;;;;-144.47;100.00;61586.06;5029550;28;20444;-86
2021/12/21 04:11:14;;;;;;;72.63;36.40;;;;;;;-144.47;100.00;61586.06;5041922;28;20042;-88
2021/12/21 04:13:40;;;;;;;73.15;36.33;;;;;;;-144.47;100.00;61586.06;5009122;28;20033;-88
2021/12/21 04:16:06;;;;;;;74.65;37.83;;;;;;;-144.47;100.00;61586.06;5054377;28;20044;-87
2021/12/21 04:18:36;;;;;;;72.28;36.70;;;;;;;-144.47;100.00;61586.06;5060376;28;20226;-88
2021/12/21 04:21:04;;;;;;;76.00;38.70;;;;;;;-144.47;100.00;61586.06;5044652;28;20091;-89
2021/12/21 04:23:29;;;;;;;69.93;35.20;;;;;;;-144.47;100.00;61586.06;5027881;28;20033;-88
2021/12/21 04:25:55;;;;;;;69.00;36.78;;;;;;;-144.47;100.00;61586.06;5033998;28;20026;-88
2021/12/21 04:28:21;;;;;;;68.22;37.20;;;;;;;-144.47;100.00;61586.06;5007758;28;20037;-88
2021/12/21 04:30:46;;;;;;;67.60;36.63;;;;;;;-144.47;100.00;61586.06;5024603;28;20098;-89
2021/12/21 04:33:12;;;;;;;71.53;36.58;;;;;;;-144.47;100.00;61586.06;5035553;28;20033;-88
2021/12/21 04:35:37;;;;;;;70.20;37.63;;;;;;;-144.47;100.00;61586.06;5045216;28;20030;-88
2021/12/21 04:38:20;;;;;;;73.32;37.05;;;;;;;-144.47;100.00;61586.06;5257102;23;20068;-88
2021/12/21 04:40:54;;;;;;;65.07;36.22;;;;;;;-144.47;100.00;61586.06;5029580;28;20478;-88
2021/12/21 04:43:20;;;;;;;70.07;36.22;;;;;;;-144.47;100.00;61586.06;5042598;28;20461;-89
2021/12/21 04:45:45;;;;;;;68.72;36.03;;;;;;;-144.47;100.00;61586.06;5008629;28;20037;-88
2021/12/21 04:48:11;;;;;;;65.55;34.72;;;;;;;-144.47;100.00;61586.06;5037478;28;20025;-85
2021/12/21 04:50:37;;;;;;;71.43;37.80;;;;;;;-144.47;100.00;61586.06;5038202;28;20040;-88
2021/12/21 04:53:03;;;;;;;67.15;36.30;;;;;;;-144.47;100.00;61586.06;5041891;28;20041;-88
2021/12/21 04:55:28;;;;;;;70.63;36.50;;;;;;;-144.47;100.00;61586.06;5056235;28;20037;-88
2021/12/21 04:57:54;;;;;;;64.85;36.25;;;;;;;-144.47;100.00;61586.06;5060574;28;20030;-87
2021/12/21 05:00:19;;;;;;;70.53;36.97;;;;;;;-144.47;100.00;61586.06;5061737;28;20096;-88
2021/12/21 05:02:45;;;;;;;69.88;36.28;;;;;;;-144.47;100.00;61586.06;5033693;28;20026;-88
2021/12/21 05:05:11;;;;;;;69.90;36.70;;;;;;;-144.47;100.00;61586.06;5010132;28;20087;-88
2021/12/21 05:07:39;;;;;;;68.40;37.78;;;;;;;-144.47;100.00;61586.06;5025614;28;20025;-87
2021/12/21 05:10:07;;;;;;;73.85;37.60;;;;;;;-144.47;100.00;61586.06;5011621;28;20049;-88
2021/12/21 05:12:36;;;;;;;65.22;36.17;;;;;;;-144.47;100.00;61586.06;5029145;28;20041;-89
2021/12/21 05:15:03;;;;;;;66.93;36.00;;;;;;;-144.47;100.00;61586.06;5042595;28;20132;-88
2021/12/21 05:17:29;;;;;;;67.65;35.17;;;;;;;-144.47;100.00;61586.06;5026934;28;20033;-88
2021/12/21 05:19:55;;;;;;;67.13;36.72;;;;;;;-144.47;100.00;61586.06;5043465;28;20030;-89
2021/12/21 05:22:21;;;;;;;68.00;35.72;;;;;;;-144.47;100.00;61586.06;5028581;28;20029;-87
2021/12/21 05:24:47;;;;;;;69.13;37.50;;;;;;;-144.47;100.00;61586.06;5045799;28;20123;-88
2021/12/21 05:27:13;;;;;;;68.05;36.35;;;;;;;-144.47;100.00;61586.06;5034537;28;20353;-88
2021/12/21 05:29:38;;;;;;;71.93;37.72;;;;;;;-144.47;100.00;61586.06;5043950;28;20033;-88
2021/12/21 05:32:05;;;;;;;69.65;37.45;;;;;;;-144.47;100.00;61586.06;5028353;28;20045;-86
2021/12/21 05:34:31;;;;;;;66.40;37.55;;;;;;;-144.47;100.00;61586.06;5049243;28;20122;-88
2021/12/21 05:36:58;;;;;;;67.65;37.70;;;;;;;-144.47;100.00;61586.06;5034275;28;20110;-87
2021/12/21 05:39:27;;;;;;;72.68;38.25;;;;;;;-144.47;100.00;61586.06;5051122;28;20481;-87
2021/12/21 05:41:55;;;;;;;70.10;38.95;;;;;;;-144.47;100.00;61586.06;5009563;28;20049;-88
2021/12/21 05:44:26;;;;;;;69.07;37.45;;;;;;;-144.47;100.00;61586.06;5008936;28;20129;-86
2021/12/21 05:46:54;;;;;;;70.63;36.55;;;;;;;-144.47;100.00;61586.06;5013572;28;20036;-88
2021/12/21 05:49:19;;;;;;;67.07;36.45;;;;;;;-144.47;100.00;61586.06;5012905;28;20025;-87
2021/12/21 05:51:45;;;;;;;66.80;37.00;;;;;;;-144.47;100.00;61586.06;5028477;28;20124;-87
2021/12/21 05:54:15;;;;;;;68.82;36.08;;;;;;;-144.47;100.00;61586.06;5010840;28;20028;-88
2021/12/21 05:56:41;;;;;;;66.57;36.17;;;;;;;-144.47;100.00;61586.06;5043793;28;20033;-88
2021/12/21 05:59:06;;;;;;;69.68;37.90;;;;;;;-144.47;100.00;61586.06;5044301;28;20040;-87
2021/12/21 06:01:34;;;;;;;69.60;37.53;;;;;;;-144.47;100.00;61586.06;5009175;28;20400;-89
2021/12/21 06:04:01;;;;;;;64.15;36.45;;;;;;;-144.47;100.00;61586.06;5043153;28;20029;-88
2021/12/21 06:06:28;;;;;;;67.93;38.13;;;;;;;-144.47;100.00;61586.06;5043813;28;20059;-89
2021/12/21 06:08:55;;;;;;;71.88;37.13;;;;;;;-144.47;100.00;61586.06;5022215;28;20022;-85
2021/12/21 06:11:23;;;;;;;67.75;36.70;;;;;;;-144.47;100.00;61586.06;5044425;28;20041;-83
2021/12/21 06:27:07;;;;;;;76.13;38.40;;;;;;;-144.47;100.00;61586.06;5043500;28;20482;-87
2021/12/21 06:29:33;;;;;;;72.65;38.80;;;;;;;-144.47;100.00;61586.06;5023393;28;20060;-87
2021/12/21 06:31:59;;;;;;;70.40;38.45;;;;;;;-144.47;100.00;61586.06;4341141;28;10000684;-85
2021/12/21 06:34:24;;;;;;;70.75;37.72;;;;;;;-144.47;100.00;61586.06;5024230;28;20045;-89
2021/12/21 06:36:52;;;;;;;67.55;38.42;;;;;;;-144.47;100.00;61586.06;5044326;28;20040;-91
2021/12/21 06:39:17;;;;;;;71.82;37.88;;;;;;;-144.47;100.00;61586.06;5009753;28;20046;-87
2021/12/21 06:41:44;;;;;;;64.45;36.30;;;;;;;-144.47;100.00;61586.06;5037618;28;20037;-92
2021/12/21 06:44:13;;;;;;;63.78;35.90;;;;;;;-144.47;100.00;61586.06;5019636;28;20052;-91
2021/12/21 06:46:49;;;;;;;67.38;38.70;;;;;;;-144.47;100.00;61586.06;5025239;28;20096;-83
2021/12/21 06:52:00;;;;;;;65.93;38.17;;;;;;;-144.47;100.00;61586.06;5011715;28;20045;-82
2021/12/21 06:54:27;;;;;;;72.68;37.97;;;;;;;-144.47;100.00;61586.06;5019605;28;20029;-84
2021/12/21 06:56:53;;;;;;;69.22;38.00;;;;;;;-144.47;100.00;61586.06;5020173;28;20030;-84
2021/12/21 06:59:18;;;;;;;70.82;37.38;;;;;;;-144.47;100.00;61586.06;5018131;28;20026;-84
2021/12/21 07:01:45;;;;;;;69.25;39.03;;;;;;;-144.47;100.00;61586.06;4656733;28;10000324;-83
2021/12/21 07:04:14;;;;;;;67.93;37.78;;;;;;;-144.47;100.00;61586.06;5023138;28;20053;-83
2021/12/21 07:06:41;;;;;;;66.63;37.85;;;;;;;-144.47;100.00;61586.06;5020580;28;20034;-83
2021/12/21 07:09:23;;;;;;;65.03;37.20;;;;;;;-144.47;100.00;61586.06;5024805;28;20040;-82
2021/12/21 07:12:08;;;;;;;63.60;37.60;;;;;;;-144.47;100.00;61586.06;5024045;28;20037;-83
2021/12/21 07:20:05;;;;;;;64.18;36.08;;;;;;;-144.47;100.00;61586.06;5021213;28;20613;-83
2021/12/21 07:22:30;;;;;;;67.75;38.03;;;;;;;-144.47;100.00;61586.06;5021539;28;20462;-84
2021/12/21 07:24:56;;;;;;;75.72;38.90;;;;;;;-144.47;100.00;61586.06;5021268;28;20049;-83
2021/12/21 07:27:21;;;;;;;59.65;36.25;;;;;;;-144.47;100.00;61586.06;4995488;28;20163;-82
2021/12/21 07:29:48;;;;;;;66.40;36.15;;;;;;;-144.47;100.00;61586.06;5023719;28;20026;-83
2021/12/21 07:32:14;;;;;;;67.25;37.00;;;;;;;-144.47;100.00;61586.06;5022973;28;20464;-82
2021/12/21 07:34:39;;;;;;;65.07;36.83;;;;;;;-144.47;100.00;61586.06;5020183;28;20109;-82
2021/12/21 07:37:09;;;;;;;65.88;37.70;;;;;;;-144.47;100.00;61586.06;5026691;28;20041;-83
2021/12/21 07:39:35;;;;;;;63.13;36.00;;;;;;;-144.47;100.00;61586.06;4999041;28;20052;-83
2021/12/21 07:42:00;;;;;;;61.40;35.65;;;;;;;-144.47;100.00;61586.06;5026209;28;20034;-83
2021/12/21 07:44:28;;;;;;;65.68;37.67;;;;;;;-144.47;100.00;61586.06;5031776;28;20040;-83
2021/12/21 07:46:53;;;;;;;72.60;38.97;;;;;;;-144.47;100.00;61586.06;5035816;28;20062;-83
2021/12/21 07:49:21;;;;;;;63.28;36.95;;;;;;;-144.47;100.00;61586.06;5022994;28;20493;-83
2021/12/21 07:51:48;;;;;;;67.05;37.80;;;;;;;-144.47;100.00;61586.06;5022310;28;20038;-82
2021/12/21 07:54:15;;;;;;;71.75;37.72;;;;;;;-144.47;100.00;61586.06;5007488;28;20038;-81
2021/12/21 07:56:41;;;;;;;62.10;36.88;;;;;;;-144.47;100.00;61586.06;5022872;28;20025;-81
2021/12/21 07:59:06;;;;;;;66.82;37.53;;;;;;;-144.47;100.00;61586.06;5019069;28;20080;-79
2021/12/21 08:01:32;;;;;;;65.57;36.13;;;;;;;-144.47;100.00;61586.06;5015591;28;20389;-82
2021/12/21 08:03:58;;;;;;;63.95;36.95;;;;;;;-144.47;100.00;61586.06;5020149;28;20033;-81
2021/12/21 08:06:26;;;;;;;64.10;37.30;;;;;;;-144.47;100.00;61586.06;5020818;28;20052;-81
2021/12/21 08:08:52;;;;;;;65.10;37.97;;;;;;;-144.47;100.00;61586.06;5019568;28;20679;-82
2021/12/21 08:12:10;;;;;;;63.20;37.83;;;;;;;-144.47;100.00;61586.06;5019510;28;20041;-82
2021/12/21 08:14:13;;;;;;;70.70;38.50;;;;;;;-144.47;100.00;61586.06;5022358;28;20041;-83
2021/12/21 08:16:38;;;;;;;68.68;38.25;;;;;;;-144.47;100.00;61586.06;5016732;28;20072;-82
2021/12/21 08:19:04;;;;;;;71.10;38.00;;;;;;;-144.47;100.00;61586.06;5023815;28;20153;-83
2021/12/21 08:21:30;;;;;;;68.38;39.03;;;;;;;-144.47;100.00;61586.06;5026081;28;20030;-83
2021/12/21 08:23:56;;;;;;;70.50;38.35;;;;;;;-144.47;100.00;61586.06;5033756;28;20053;-82
2021/12/21 08:26:22;;;;;;;67.78;37.92;;;;;;;-144.47;100.00;61586.06;5032014;28;20042;-80
2021/12/21 08:28:47;;;;;;;66.28;36.67;;;;;;;-144.47;100.00;61586.06;5016036;28;20072;-81
2021/12/21 08:31:13;;;;;;;67.93;39.00;;;;;;;-144.47;100.00;61586.06;5036844;28;20070;-81
2021/12/21 08:33:40;;;;;;;64.75;37.50;;;;;;;-144.47;100.00;61586.06;5037466;28;20056;-82
2021/12/21 08:36:06;;;;;;;66.53;38.55;;;;;;;-144.47;100.00;61586.06;5026303;28;20034;-82
2021/12/21 08:38:33;;;;;;;72.22;39.60;;;;;;;-144.47;100.00;61586.06;5024985;28;20041;-82
2021/12/21 08:40:59;;;;;;;65.32;39.15;;;;;;;-144.47;100.00;61586.06;5024920;28;20059;-82
2021/12/21 08:43:28;;;;;;;72.32;39.75;;;;;;;-144.47;100.00;61586.06;5022470;28;20120;-82
2021/12/21 08:45:55;;;;;;;71.75;38.40;;;;;;;-144.47;100.00;61586.06;5021786;28;20030;-81
2021/12/21 08:48:22;;;;;;;66.75;38.78;;;;;;;-144.47;100.00;61586.06;5002769;28;20021;-82
2021/12/21 08:50:50;;;;;;;64.55;37.97;;;;;;;-144.47;100.00;61586.06;5023352;28;20042;-82
2021/12/21 08:53:16;;;;;;;68.22;38.58;;;;;;;-144.47;100.00;61586.06;5019175;28;20033;-81
2021/12/21 08:55:43;;;;;;;66.22;38.88;;;;;;;-144.47;100.00;61586.06;5020924;28;20117;-81
2021/12/21 08:58:10;;;;;;;67.85;37.83;;;;;;;-144.47;100.00;61586.06;5015396;28;20040;-81
2021/12/21 09:00:35;;;;;;;68.70;38.88;;;;;;;-144.47;100.00;61586.06;5024606;28;20113;-81
2021/12/21 09:03:02;;;;;;;64.85;37.88;;;;;;;-144.47;100.00;61586.06;5026224;28;20498;-81
2021/12/21 09:05:30;;;;;;;60.90;37.42;;;;;;;-144.47;100.00;61586.06;5024593;28;20030;-83
2021/12/21 09:07:56;;;;;;;64.47;38.03;;;;;;;-144.47;100.00;61586.06;5023487;28;20029;-81
2021/12/21 09:10:23;;;;;;;65.50;38.05;;;;;;;-144.47;100.00;61586.06;5017473;28;20029;-83
2021/12/21 09:12:50;;;;;;;62.67;37.95;;;;;;;-144.47;100.00;61586.06;5021113;28;20033;-83
2021/12/21 09:15:17;;;;;;;70.68;40.08;;;;;;;-144.47;100.00;61586.06;5010383;28;20103;-81
2021/12/21 09:17:44;;;;;;;70.80;38.63;;;;;;;-144.47;100.00;61586.06;5022093;28;20517;-82
2021/12/21 09:20:15;;;;;;;63.38;38.33;;;;;;;-144.47;100.00;61586.06;5016731;28;20033;-82
2021/12/21 09:22:42;;;;;;;67.28;37.63;;;;;;;-144.47;100.00;61586.06;5024968;28;20037;-82
2021/12/21 09:25:09;;;;;;;63.30;37.92;;;;;;;-144.47;100.00;61586.06;5025921;28;20414;-82
2021/12/21 09:27:34;;;;;;;67.80;39.53;;;;;;;-144.47;100.00;61586.06;5017533;28;20080;-83
2021/12/21 09:30:00;;;;;;;69.72;40.42;;;;;;;-144.47;100.00;61586.06;5023310;28;20026;-82
2021/12/21 09:32:26;;;;;;;70.18;40.78;;;;;;;-144.47;100.00;61586.06;5017247;28;20028;-82
2021/12/21 09:34:52;;;;;;;68.53;38.90;;;;;;;-144.47;100.00;61586.06;5020622;28;20165;-82
2021/12/21 09:37:20;;;;;;;65.35;39.53;;;;;;;-144.47;100.00;61586.06;5024847;28;20163;-81
2021/12/21 09:39:52;;;;;;;66.28;38.25;;;;;;;-144.47;100.00;61586.06;5001156;28;20033;-81
2021/12/21 09:42:21;;;;;;;69.32;40.20;;;;;;;-144.47;100.00;61586.06;5024329;28;20456;-81
2021/12/21 09:44:47;;;;;;;71.03;39.67;;;;;;;-144.47;100.00;61586.06;5017404;28;20115;-81
2021/12/21 09:47:14;;;;;;;65.18;39.20;;;;;;;-144.47;100.00;61586.06;5024119;28;20048;-83
2021/12/21 09:49:41;;;;;;;72.47;38.78;;;;;;;-144.47;100.00;61586.06;5021781;28;20116;-82
2021/12/21 09:52:09;;;;;;;68.93;41.22;;;;;;;-144.47;100.00;61586.06;5023719;28;20100;-82
2021/12/21 09:54:35;;;;;;;70.88;41.42;;;;;;;-144.47;100.00;61586.06;5022678;28;20065;-82
2021/12/21 09:57:01;;;;;;;66.03;38.75;;;;;;;-144.47;100.00;61586.06;5020919;28;20904;-82
2021/12/21 09:59:28;;;;;;;67.53;39.17;;;;;;;-144.47;100.00;61586.06;5023613;28;20082;-82
2021/12/21 10:01:56;;;;;;;70.88;40.90;;;;;;;-144.47;100.00;61586.06;5036658;28;20056;-82
2021/12/21 10:04:22;;;;;;;66.07;39.42;;;;;;;-144.47;100.00;61586.06;5036232;28;20057;-83
2021/12/21 10:06:51;;;;;;;70.13;40.53;;;;;;;-144.47;100.00;61586.06;5018855;28;20812;-81
2021/12/21 10:09:19;;;;;;;69.72;39.97;;;;;;;-144.47;100.00;61586.06;5017635;28;20101;-82
2021/12/21 10:11:50;;;;;;;70.80;40.78;;;;;;;-144.47;100.00;61586.06;5018131;28;20125;-84
2021/12/21 10:14:19;;;;;;;70.30;40.78;;;;;;;-144.47;100.00;61586.06;5017394;28;20045;-85
2021/12/21 10:16:45;;;;;;;80.35;42.63;;;;;;;-144.47;100.00;61586.06;5017300;28;20045;-82
2021/12/21 10:19:24;;;;;;;73.22;39.65;;;;;;;-144.47;100.00;61586.06;5024192;28;20084;-82
2021/12/21 10:21:50;;;;;;;69.10;39.13;;;;;;;-144.47;100.00;61586.06;5022070;28;20116;-81
2021/12/21 10:24:27;;;;;;;71.47;40.78;;;;;;;-144.47;100.00;61586.06;5025746;28;20025;-84
2021/12/21 10:27:06;;;;;;;75.00;40.80;;;;;;;-144.47;100.00;61586.06;5023480;28;20046;-81
2021/12/21 10:29:47;;;;;;;68.80;38.70;;;;;;;-144.47;100.00;61586.06;5031078;28;20044;-81
2021/12/21 10:32:19;;;;;;;69.85;39.72;;;;;;;-144.47;100.00;61586.06;5034321;28;20068;-85
2021/12/21 10:35:05;;;;;;;70.47;39.60;;;;;;;-144.47;100.00;61586.06;5025269;28;20037;-81
2021/12/21 10:37:33;;;;;;;72.13;40.85;;;;;;;-144.47;100.00;61586.06;5026659;28;20053;-83
2021/12/21 10:40:05;;;;;;;68.47;39.70;;;;;;;-144.47;100.00;61586.06;5050987;28;20049;-81
2021/12/21 10:42:30;;;;;;;70.93;40.85;;;;;;;-144.47;100.00;61586.06;5030876;28;20436;-83
2021/12/21 10:45:05;;;;;;;70.13;39.65;;;;;;;-144.47;100.00;61586.06;5050043;28;20021;-84
2021/12/21 10:47:33;;;;;;;71.97;42.30;;;;;;;-144.47;100.00;61586.06;5049263;28;20083;-82
2021/12/21 10:49:58;;;;;;;65.72;39.28;;;;;;;-144.47;100.00;61586.06;5044787;28;20116;-83
2021/12/21 10:52:24;;;;;;;68.13;41.05;;;;;;;-144.47;100.00;61586.06;5044700;28;20136;-82
2021/12/21 10:54:50;;;;;;;67.95;40.50;;;;;;;-144.47;100.00;61586.06;5040454;28;20465;-82
2021/12/21 10:57:17;;;;;;;69.07;40.55;;;;;;;-144.47;100.00;61586.06;5040806;28;20052;-82
2021/12/21 10:59:46;;;;;;;71.95;40.42;;;;;;;-144.47;100.00;61586.06;5023437;28;20109;-82
2021/12/21 11:02:23;;;;;;;68.25;39.20;;;;;;;-144.47;100.00;61586.06;5013968;28;20036;-83
2021/12/21 11:04:54;;;;;;;65.35;39.30;;;;;;;-144.47;100.00;61586.06;5039916;28;20037;-82
2021/12/21 11:07:32;;;;;;;65.10;39.88;;;;;;;-144.47;100.00;61586.06;5040453;28;20142;-82
2021/12/21 11:10:10;;;;;;;68.30;39.25;;;;;;;-144.47;100.00;61586.06;5041466;28;20029;-83
2021/12/21 11:12:50;;;;;;;63.15;38.25;;;;;;;-144.47;100.00;61586.06;5025459;28;20033;-82
2021/12/21 11:15:21;;;;;;;71.13;40.65;;;;;;;-144.47;100.00;61586.06;5036659;28;20040;-81
2021/12/21 11:17:48;;;;;;;72.30;42.50;;;;;;;-144.47;100.00;61586.06;5036029;28;20034;-83
2021/12/21 11:20:15;;;;;;;67.50;39.95;;;;;;;-144.47;100.00;61586.06;5042754;28;20074;-83
2021/12/21 11:22:44;;;;;;;66.05;38.05;;;;;;;-144.47;100.00;61586.06;5039380;28;20849;-83
2021/12/21 11:25:12;;;;;;;64.95;38.22;;;;;;;-144.47;100.00;61586.06;5042379;28;20110;-83
2021/12/21 11:27:40;;;;;;;71.45;40.45;;;;;;;-144.47;100.00;61586.06;5021501;28;20037;-83
2021/12/21 11:30:09;;;;;;;63.75;38.70;;;;;;;-144.47;100.00;61586.06;5040589;28;20032;-83
2021/12/21 11:32:39;;;;;;;67.20;39.33;;;;;;;-144.47;100.00;61586.06;5042189;28;20126;-82
2021/12/21 11:37:44;;;;;;;66.75;40.05;;;;;;;-144.47;100.00;61586.06;5023739;28;20097;-82
2021/12/21 11:40:13;;;;;;;66.40;38.95;;;;;;;-144.47;100.00;61586.06;5032419;23;20657;-78
2021/12/21 11:42:56;;;;;;;68.97;39.75;;;;;;;-144.47;100.00;61586.06;5014981;28;20190;-77
2021/12/21 11:45:46;;;;;;;65.55;38.83;;;;;;;-144.47;100.00;61586.06;5017674;28;20393;-76
2021/12/21 11:48:15;;;;;;;68.43;38.63;;;;;;;-144.47;100.00;61586.06;5021202;28;20030;-77
2021/12/21 11:50:44;;;;;;;71.47;40.90;;;;;;;-144.47;100.00;61586.06;5018606;28;20160;-77
2021/12/21 11:53:13;;;;;;;69.70;40.03;;;;;;;-144.47;100.00;61586.06;5020850;28;20095;-76
2021/12/21 11:55:41;;;;;;;74.43;40.42;;;;;;;-144.47;100.00;61586.06;5018653;28;20115;-77
2021/12/21 11:58:29;;;;;;;68.13;39.15;;;;;;;-144.47;100.00;61586.06;5020809;28;20041;-78
2021/12/21 12:00:59;;;;;;;69.65;40.20;;;;;;;-144.47;100.00;61586.06;5021597;28;20046;-77
2021/12/21 12:03:26;;;;;;;;;;;;;;;-144.47;100.00;61586.06;5024983;28;20040;-77